»·PEaware :: EJA243 KYKM-KOTH

EJA243 :: KYKM-KOTH

FLIGHT INFORMATION

Flight Status: Arrived
Operator:
Netjets Aviation
More flights by this operator :: More flights under this callsign
Pilot: Cullen C. (7783)
Aircraft: AIRBUS A320
(A320)
More flights by this aircraft type
Origin: KYKM Yakima Air Term/Mcallister
United States
Destination: KOTH North Bend Mun
United States
More flights between these airports :: More routes between these airports
Route: +GROMO4 HITCH OTH
File this flight plan on PilotEdge
Remarks:
Altitude:
(Current/Filed)
38,000ft
Speed:
(Current/Filed)
450kts
Departed: 01-Nov-17 04:03 PM
Arrived: 01-Nov-17 04:53 PM
Distance/Time
Traveled:
246nm/0:49
Distance/Time
To Go:
Arrived

Flight Plot

Page will automatically refresh every two minutes.

Flight plan parsing failed; only flown route is shown


Map Options




Map Legend


Flown Route
Filed Route
Departure Airport
Arrival Airport
Navaid (VOR, NDB)
Fix

Horizontal Profiles

Position Reports

Time Latitude Longitude Heading Altitude Ground
Speed
01-Nov-17 15:42 46.569816 -120.541735 270 1076ft 0kts
01-Nov-17 15:43 46.569816 -120.541735 270 1076ft 0kts
01-Nov-17 15:44 46.569816 -120.541735 270 1076ft 0kts
01-Nov-17 15:45 46.569816 -120.541735 270 1076ft 0kts
01-Nov-17 15:46 46.569816 -120.541735 270 1076ft 0kts
01-Nov-17 15:47 46.569816 -120.541735 270 1076ft 0kts
01-Nov-17 15:48 46.569816 -120.541735 270 1076ft 0kts
01-Nov-17 15:49 46.569816 -120.541735 270 1076ft 0kts
01-Nov-17 15:50 46.569816 -120.541735 270 1076ft 0kts
01-Nov-17 15:51 46.569816 -120.541735 270 1076ft 0kts
01-Nov-17 15:52 46.569816 -120.541735 270 1076ft 0kts
01-Nov-17 15:53 46.569816 -120.541735 270 1076ft 0kts
01-Nov-17 15:54 46.569816 -120.541735 270 1076ft 0kts
01-Nov-17 15:55 46.569816 -120.541735 270 1076ft 0kts
01-Nov-17 15:56 46.569816 -120.541735 270 1076ft 0kts
01-Nov-17 15:57 46.569816 -120.541735 270 1076ft 0kts
01-Nov-17 15:58 46.569816 -120.541736 270 1076ft 0kts
01-Nov-17 15:59 46.569645 -120.542223 213 1076ft 5kts
01-Nov-17 16:00 46.568625 -120.539324 112 1076ft 15kts
01-Nov-17 16:01 46.566966 -120.532671 109 1076ft 10kts
01-Nov-17 16:02 46.566685 -120.531663 129 1076ft 0kts
01-Nov-17 16:03 46.566685 -120.531663 129 1076ft 0kts
01-Nov-17 16:04 46.566685 -120.531663 129 1076ft 0kts
01-Nov-17 16:05 46.566068 -120.531481 183 1076ft 11kts
01-Nov-17 16:06 46.565781 -120.532571 289 1076ft 0kts
01-Nov-17 16:07 46.565781 -120.532571 289 1076ft 0kts
01-Nov-17 16:08 46.567148 -120.537926 289 1076ft 110kts
01-Nov-17 16:09 46.575893 -120.607865 262 4754ft 213kts
01-Nov-17 16:10 46.523381 -120.653568 161 8158ft 290kts
01-Nov-17 16:11 46.445483 -120.642470 217 10019ft 323kts
01-Nov-17 16:12 46.379257 -120.738235 224 10267ft 346kts
01-Nov-17 16:13 46.305373 -120.831522 226 13343ft 360kts
01-Nov-17 16:14 46.228844 -120.928224 227 16525ft 374kts
01-Nov-17 16:15 46.149497 -121.028140 228 19293ft 388kts
01-Nov-17 16:16 46.067026 -121.131564 228 21756ft 399kts
01-Nov-17 16:17 45.983252 -121.236147 229 22887ft 401kts
01-Nov-17 16:18 45.901967 -121.337252 229 22897ft 403kts
01-Nov-17 16:19 45.818207 -121.440983 229 22897ft 403kts
01-Nov-17 16:20 45.733162 -121.545901 229 22897ft 403kts
01-Nov-17 16:21 45.648477 -121.650052 228 22899ft 403kts
01-Nov-17 16:22 45.564116 -121.753153 228 22903ft 404kts
01-Nov-17 16:23 45.479041 -121.856830 228 22996ft 404kts
01-Nov-17 16:24 45.393468 -121.960735 228 22971ft 417kts
01-Nov-17 16:25 45.305400 -122.067173 227 22987ft 427kts
01-Nov-17 16:26 45.214914 -122.175944 227 22984ft 426kts
01-Nov-17 16:27 45.124882 -122.283785 229 22990ft 422kts
01-Nov-17 16:28 45.036581 -122.389202 228 22987ft 427kts
01-Nov-17 16:29 44.946157 -122.496551 228 23015ft 424kts
01-Nov-17 16:30 44.856600 -122.602475 228 23013ft 424kts
01-Nov-17 16:31 44.767491 -122.707440 227 23015ft 423kts
01-Nov-17 16:32 44.677172 -122.813388 227 23013ft 423kts
01-Nov-17 16:33 44.587144 -122.918547 227 23013ft 422kts
01-Nov-17 16:34 44.497242 -123.023123 227 23014ft 421kts
01-Nov-17 16:35 44.407073 -123.127521 227 23014ft 421kts
01-Nov-17 16:36 44.316696 -123.231870 227 20885ft 430kts
01-Nov-17 16:37 44.225775 -123.336278 226 17585ft 431kts
01-Nov-17 16:38 44.134799 -123.440265 225 15120ft 408kts
01-Nov-17 16:39 44.050690 -123.536050 225 13035ft 383kts
01-Nov-17 16:40 43.968762 -123.619007 200 11130ft 362kts
01-Nov-17 16:41 43.877303 -123.624853 186 10954ft 315kts
01-Nov-17 16:42 43.792194 -123.625992 186 10488ft 291kts
01-Nov-17 16:43 43.715210 -123.626523 186 9735ft 265kts
01-Nov-17 16:44 43.643102 -123.627163 186 8732ft 255kts
01-Nov-17 16:45 43.574741 -123.629737 186 7813ft 242kts
01-Nov-17 16:46 43.507480 -123.638942 186 6675ft 243kts
01-Nov-17 16:47 43.449122 -123.671337 247 5693ft 234kts
01-Nov-17 16:48 43.449421 -123.756152 268 5130ft 212kts
01-Nov-17 16:49 43.405060 -123.792762 185 4966ft 204kts
01-Nov-17 16:50 43.370978 -123.835982 295 4849ft 193kts
01-Nov-17 16:51 43.403171 -123.893265 304 4374ft 189kts
01-Nov-17 16:52 43.424795 -123.956459 285 3972ft 177kts
01-Nov-17 16:53 43.438040 -124.020431 284 3414ft 159kts
01-Nov-17 16:54 43.448558 -124.077195 281 2863ft 157kts
01-Nov-17 16:55 43.453683 -124.136141 267 2090ft 144kts
01-Nov-17 16:56 43.444673 -124.187262 241 1145ft 129kts
01-Nov-17 16:57 43.426809 -124.230948 242 286ft 125kts
01-Nov-17 16:58 43.416867 -124.255296 241 14ft 21kts
01-Nov-17 16:59 43.416424 -124.253413 61 14ft 16kts
01-Nov-17 17:00 43.418356 -124.248667 59 14ft 11kts
01-Nov-17 17:01 43.417692 -124.246843 144 14ft 10kts
01-Nov-17 17:02 43.417579 -124.247247 329 14ft 0kts
01-Nov-17 17:03 43.417579 -124.247247 329 14ft 0kts
01-Nov-17 17:04 43.417579 -124.247247 329 14ft 0kts
01-Nov-17 17:05 43.417579 -124.247247 329 14ft 0kts
01-Nov-17 17:06 43.417579 -124.247247 329 14ft 0kts
01-Nov-17 17:07 43.417579 -124.247247 329 14ft 0kts
01-Nov-17 17:08 43.417579 -124.247247 329 14ft 0kts
01-Nov-17 17:09 43.417579 -124.247247 329 14ft 0kts
01-Nov-17 17:10 43.417579 -124.247247 329 14ft 0kts
01-Nov-17 17:11 43.417579 -124.247247 329 14ft 0kts
01-Nov-17 17:12 43.417579 -124.247247 329 14ft 0kts

Navigation Log

Ident Type
Flight plan parsing failed, navigation log unavailable